Gulf Coast — WDC9139 — position and weather

sailwx.info

Track history (hours):
 
Tides and Currents Weather Stations Pressure Air Temp Water Temp Dewpoint Dewpoint Depression Visibility Wind Speed Wind Dir Waves Ship Positions

Gulf Coast

Owner: Dann Marine Towing, LC, Chesapeake City, MD. More information available from US FCC via Universal Licensing System and Coast Guard Vessel Documentation Center.

Last reported at 2017-Nov-17 14:18 UTC. Time now 2017-Nov-18 17:54 UTC.
Position N 38°03' W 076°14'.

Length 30 m; draft 4 m.

Type: Tug. MMSI: 367098070.

Date/timePositionNaut miles runAvg speedWind from/ knotsBaromVisibWave heightAir tempDewpointWater temp
2017-Nov-17 14:18N 38°03' W 076°14'48 7.1
2017-Nov-17 07:32N 38°51' W 076°26'0 6.8
2017-Nov-17 07:30N 38°51' W 076°26'9 7.0
2017-Nov-17 06:09N 39°00' W 076°23'1 7.0
2017-Nov-17 05:57N 39°01' W 076°22'8 6.4
2017-Nov-17 04:40N 39°09' W 076°19'1 6.7
2017-Nov-17 04:29N 39°10' W 076°18'5 7.0
2017-Nov-17 03:47N 39°14' W 076°14'2 7.3
2017-Nov-17 03:29N 39°16' W 076°14'3 7.0
2017-Nov-17 03:00N 39°19' W 076°12'3 6.9
2017-Nov-17 02:30N 39°22' W 076°09'3 6.5
2017-Nov-17 02:00N 39°23' W 076°05'3 5.9
2017-Nov-17 01:30N 39°25' W 076°02'3 5.5
2017-Nov-17 01:00N 39°27' W 075°60'1 1.9
2017-Nov-17 00:30N 39°27' W 075°59'1 2.2
2017-Nov-17 00:00N 39°28' W 075°58'3 5.6
2017-Nov-16 23:30N 39°30' W 075°55'3 5.2
2017-Nov-16 23:00N 39°31' W 075°52'2 4.4
2017-Nov-16 22:30N 39°32' W 075°50'2 4.3
2017-Nov-16 22:00N 39°32' W 075°47'2 4.7
2017-Nov-16 21:30N 39°33' W 075°44'2 5.0
2017-Nov-16 21:00N 39°33' W 075°41'3 5.2
2017-Nov-16 20:30N 39°33' W 075°37'3 5.9
2017-Nov-16 20:00N 39°34' W 075°33'4 7.3
2017-Nov-16 19:30N 39°37' W 075°35'4 9.0
2017-Nov-16 19:00N 39°41' W 075°31'4 8.7
2017-Nov-16 18:30N 39°45' W 075°30'4 7.9
2017-Nov-16 18:00N 39°48' W 075°26'4 7.5
2017-Nov-16 17:31N 39°50' W 075°22'3 6.3
2017-Nov-16 17:00N 39°51' W 075°18'3 5.8
2017-Nov-16 16:31N 39°51' W 075°14'3 6.0
2017-Nov-16 16:01N 39°53' W 075°11'2 4.9
2017-Nov-16 15:31N 39°54' W 075°08'3 5.5
2017-Nov-16 15:01N 39°56' W 075°08'2 4.8
2017-Nov-16 14:30N 39°58' W 075°06'2 4.7
2017-Nov-16 14:01N 39°60' W 075°04'0 0.9
2017-Nov-16 13:31N 39°60' W 075°04'0 0.0
2017-Nov-16 13:01N 39°60' W 075°04'0 0.1
2017-Nov-16 12:31N 40°00' W 075°04'0 0.0
2017-Nov-16 12:01N 40°00' W 075°04'0 0.0
2017-Nov-16 11:30N 40°00' W 075°04'0 0.0
2017-Nov-16 11:00N 40°00' W 075°04'0 0.0
2017-Nov-16 10:30N 40°00' W 075°04'0 0.0
2017-Nov-16 10:00N 40°00' W 075°04'0 0.0
2017-Nov-16 09:30N 40°00' W 075°04'0 0.0
2017-Nov-16 09:00N 40°00' W 075°04'0 0.0
2017-Nov-16 08:30N 40°00' W 075°04'0 0.0
2017-Nov-16 08:00N 40°00' W 075°04'0 0.0
2017-Nov-16 07:30N 40°00' W 075°04'0 0.0
2017-Nov-16 07:00N 40°00' W 075°04'0 0.0
2017-Nov-16 06:30N 40°00' W 075°04'0 0.0
2017-Nov-16 06:00N 40°00' W 075°04'0 0.0
2017-Nov-16 05:30N 40°00' W 075°04'0 0.0
2017-Nov-16 05:01N 40°00' W 075°04'0 0.0
2017-Nov-16 04:30N 40°00' W 075°04'0 0.0
2017-Nov-16 04:00N 40°00' W 075°04'0 0.0
2017-Nov-16 03:30N 40°00' W 075°04'0 0.0
2017-Nov-16 03:00N 40°00' W 075°04'0 0.0
2017-Nov-16 02:31N 40°00' W 075°04'0 0.0
2017-Nov-16 02:01N 40°00' W 075°04'0 0.0
2017-Nov-16 01:31N 40°00' W 075°04'0 0.0
2017-Nov-16 01:01N 40°00' W 075°04'0 0.0
2017-Nov-16 00:31N 40°00' W 075°04'0 0.0
2017-Nov-16 00:01N 40°00' W 075°04'0 0.0
2017-Nov-15 23:30N 40°00' W 075°04'0 0.0
2017-Nov-15 23:01N 40°00' W 075°04'0 0.0
2017-Nov-15 22:31N 40°00' W 075°04'0 0.0
2017-Nov-15 22:00N 40°00' W 075°04'0 0.0
2017-Nov-15 21:31N 40°00' W 075°04'0 0.0
2017-Nov-15 21:00N 40°00' W 075°04'0 0.0
2017-Nov-15 20:31N 40°00' W 075°04'0 0.0
2017-Nov-15 20:00N 40°00' W 075°04'0 0.0
2017-Nov-15 19:30N 40°00' W 075°04'0 0.0
2017-Nov-15 19:01N 40°00' W 075°04'0 0.0
2017-Nov-15 18:30N 40°00' W 075°04'0 0.0
2017-Nov-15 18:01N 40°00' W 075°04'0 0.0
2017-Nov-15 17:31N 40°00' W 075°04'0 0.0
2017-Nov-15 17:01N 40°00' W 075°04'0 0.0
2017-Nov-15 16:30N 40°00' W 075°04'0 0.0
2017-Nov-15 16:00N 40°00' W 075°04'0 0.0
2017-Nov-15 15:31N 40°00' W 075°04'0 0.0
2017-Nov-15 15:01N 40°00' W 075°04'0 0.0
2017-Nov-15 14:31N 40°00' W 075°04'0 0.0
2017-Nov-15 14:01N 40°00' W 075°04'0 0.0
2017-Nov-15 13:31N 40°00' W 075°04'0 0.0
2017-Nov-15 13:01N 40°00' W 075°04'0 0.0
2017-Nov-15 12:30N 40°00' W 075°04'0 0.0
2017-Nov-15 12:01N 40°00' W 075°04'0 0.0
2017-Nov-15 11:31N 40°00' W 075°04'0 0.0
2017-Nov-15 11:00N 40°00' W 075°04'0 0.0
2017-Nov-15 10:30N 40°00' W 075°04'0 0.0
2017-Nov-15 10:01N 40°00' W 075°04'0 0.0
2017-Nov-15 09:31N 40°00' W 075°04'0 0.0
2017-Nov-15 09:01N 40°00' W 075°04'0 0.0
2017-Nov-15 08:31N 40°00' W 075°04'0 0.0
2017-Nov-15 08:01N 40°00' W 075°04'0 0.0
2017-Nov-15 07:31N 40°00' W 075°04'0 0.0
2017-Nov-15 07:01N 40°00' W 075°04'0 0.0
2017-Nov-15 06:30N 40°00' W 075°04'0 0.0
2017-Nov-15 06:01N 40°00' W 075°04'0 0.0
2017-Nov-15 05:30N 40°00' W 075°04'0 0.0
2017-Nov-15 05:01N 40°00' W 075°04'0 0.0
2017-Nov-15 04:31N 40°00' W 075°04'0 0.0
2017-Nov-15 04:00N 40°00' W 075°04'0 0.0
2017-Nov-15 03:30N 40°00' W 075°04'0 0.0
2017-Nov-15 03:00N 40°00' W 075°04'0 0.0
2017-Nov-15 02:30N 40°00' W 075°04'0 0.0
2017-Nov-15 02:01N 40°00' W 075°04'0 0.0
2017-Nov-15 01:30N 40°00' W 075°04'0 0.0
2017-Nov-15 01:01N 40°00' W 075°04'0 0.0
2017-Nov-15 00:30N 40°00' W 075°04'0 0.0
2017-Nov-15 00:00N 40°00' W 075°04'0 0.0
2017-Nov-14 23:30N 40°00' W 075°04'0 0.0
2017-Nov-14 23:01N 40°00' W 075°04'0 0.0
2017-Nov-14 22:31N 40°00' W 075°04'0 0.0
2017-Nov-14 22:00N 40°00' W 075°04'0 0.0
2017-Nov-14 21:30N 40°00' W 075°04'0 0.0
2017-Nov-14 21:00N 40°00' W 075°04'0 0.0
2017-Nov-14 20:30N 40°00' W 075°04'0 0.0
2017-Nov-14 20:01N 40°00' W 075°04'0 0.0
2017-Nov-14 19:30N 40°00' W 075°04'0 0.0
2017-Nov-14 19:00N 40°00' W 075°04'0 0.0
2017-Nov-14 18:31N 40°00' W 075°04'0 0.0
2017-Nov-14 18:01N 40°00' W 075°04'0 0.0
2017-Nov-14 17:30N 40°00' W 075°04'0 0.0
2017-Nov-14 17:00N 40°00' W 075°04'0 0.0
2017-Nov-14 16:30N 40°00' W 075°04'0 0.0
2017-Nov-14 16:00N 40°00' W 075°04'0 0.0
2017-Nov-14 15:31N 40°00' W 075°04'0 0.0
2017-Nov-14 15:00N 40°00' W 075°04'0 0.0
2017-Nov-14 14:30N 40°00' W 075°04'0 0.0
2017-Nov-14 14:00N 40°00' W 075°04'0 0.0
2017-Nov-14 13:30N 40°00' W 075°04'0 0.0
2017-Nov-14 13:01N 40°00' W 075°04'0 0.0
2017-Nov-14 12:30N 40°00' W 075°04'0 0.0
2017-Nov-14 12:01N 40°00' W 075°04'0 0.0
2017-Nov-14 11:31N 40°00' W 075°04'0 0.0
2017-Nov-14 11:01N 40°00' W 075°04'0 0.0
2017-Nov-14 10:31N 40°00' W 075°04'0 0.0
2017-Nov-14 10:00N 40°00' W 075°04'0 0.0
2017-Nov-14 09:31N 40°00' W 075°04'0 0.0
2017-Nov-14 09:00N 40°00' W 075°04'0 0.0
2017-Nov-14 08:30N 40°00' W 075°04'0 0.0
2017-Nov-14 08:00N 40°00' W 075°04'0 0.0
2017-Nov-14 07:30N 40°00' W 075°04'0 0.0
2017-Nov-14 07:00N 40°00' W 075°04'0 0.0
2017-Nov-14 06:30N 40°00' W 075°04'0 0.0
2017-Nov-14 06:01N 40°00' W 075°04'0 0.0
2017-Nov-14 05:31N 40°00' W 075°04'0 0.0
2017-Nov-14 05:01N 40°00' W 075°04'0 0.0
2017-Nov-14 04:30N 40°00' W 075°04'0 0.0
2017-Nov-14 04:00N 40°00' W 075°04'0 0.0
2017-Nov-14 03:30N 40°00' W 075°04'0 0.0
2017-Nov-14 03:01N 40°00' W 075°04'0 0.0
2017-Nov-14 02:30N 40°00' W 075°04'0 0.0
2017-Nov-14 02:01N 40°00' W 075°04'0 0.0
2017-Nov-14 01:31N 40°00' W 075°04'0 0.0
2017-Nov-14 01:00N 40°00' W 075°04'0 0.0
2017-Nov-14 00:31N 40°00' W 075°04'0 0.0
2017-Nov-14 00:01N 40°00' W 075°04'0 0.0
2017-Nov-13 23:30N 40°00' W 075°04'0 0.0
2017-Nov-13 23:00N 40°00' W 075°04'0 0.0
2017-Nov-13 22:30N 40°00' W 075°04'0 0.0
2017-Nov-13 22:01N 40°00' W 075°04'0 0.0
2017-Nov-13 02:01N 40°00' W 075°04'0 0.0
2017-Nov-13 01:31N 40°00' W 075°04'0 0.0
2017-Nov-13 01:01N 40°00' W 075°04'0 0.0
2017-Nov-13 00:31N 40°00' W 075°04'0 0.0
2017-Nov-13 00:00N 40°00' W 075°04'0 0.0
2017-Nov-12 23:31N 40°00' W 075°04'0 0.0
2017-Nov-12 23:01N 40°00' W 075°04'0 0.0
2017-Nov-12 22:31N 40°00' W 075°04'0 0.0
2017-Nov-12 22:01N 40°00' W 075°04'0 0.0
2017-Nov-12 21:31N 40°00' W 075°04'0 0.0
2017-Nov-12 21:00N 40°00' W 075°04'0 0.0
2017-Nov-12 20:31N 40°00' W 075°04'0 0.0
2017-Nov-12 20:01N 40°00' W 075°04'0 0.0
2017-Nov-12 19:30N 40°00' W 075°04'0 0.0
2017-Nov-12 19:01N 40°00' W 075°04'0 0.0
2017-Nov-12 18:30N 40°00' W 075°04'0 0.0
2017-Nov-12 18:00N 40°00' W 075°04'0 0.0
2017-Nov-12 17:30N 40°00' W 075°04'0 0.0
2017-Nov-12 17:00N 40°00' W 075°04'0 0.0
2017-Nov-12 16:31N 40°00' W 075°04'0 0.0
2017-Nov-12 16:00N 40°00' W 075°04'0 0.0
2017-Nov-12 15:30N 40°00' W 075°04'0 0.0
2017-Nov-12 15:01N 40°00' W 075°04'0 0.0
2017-Nov-12 14:30N 40°00' W 075°04'0 0.0
2017-Nov-12 14:00N 40°00' W 075°04'0 0.0
2017-Nov-12 13:31N 40°00' W 075°04'0 0.0
2017-Nov-12 13:01N 40°00' W 075°04'0 0.0
2017-Nov-12 12:30N 40°00' W 075°04'0 0.0
2017-Nov-12 12:01N 40°00' W 075°04'0 0.0
2017-Nov-12 11:30N 40°00' W 075°04'0 0.0
2017-Nov-12 11:00N 40°00' W 075°04'0 0.0
2017-Nov-12 10:30N 40°00' W 075°04'0 0.0
2017-Nov-12 10:00N 40°00' W 075°04'0 0.0
2017-Nov-12 09:31N 40°00' W 075°04'0 0.0
2017-Nov-12 09:01N 40°00' W 075°04'0 0.0
2017-Nov-12 08:30N 40°00' W 075°04'0 0.0
2017-Nov-12 08:00N 40°00' W 075°04'0 0.0
2017-Nov-12 07:30N 40°00' W 075°04'0 0.0
2017-Nov-12 07:01N 40°00' W 075°04'0 0.0
2017-Nov-12 06:30N 40°00' W 075°04'0 0.0
2017-Nov-12 06:00N 40°00' W 075°04'0 0.0
2017-Nov-12 05:30N 40°00' W 075°04'0 0.0
2017-Nov-12 05:00N 40°00' W 075°04'0 0.0
2017-Nov-12 04:30N 40°00' W 075°04'0 0.0
2017-Nov-12 04:01N 40°00' W 075°04'0 0.0
2017-Nov-12 03:31N 40°00' W 075°04'0 0.0
2017-Nov-12 03:01N 40°00' W 075°04'0 0.0
2017-Nov-12 02:31N 40°00' W 075°04'0 0.0
2017-Nov-12 02:00N 40°00' W 075°04'0 0.0
2017-Nov-12 01:31N 40°00' W 075°04'0 0.0
2017-Nov-12 01:01N 40°00' W 075°04'0 0.0
2017-Nov-12 00:31N 40°00' W 075°04'0 0.0
2017-Nov-12 00:01N 40°00' W 075°04'0 0.0
2017-Nov-11 23:31N 40°00' W 075°04'0 0.0
2017-Nov-11 23:01N 40°00' W 075°04'0 0.0
2017-Nov-11 22:31N 40°00' W 075°04'0 0.0
2017-Nov-11 22:00N 40°00' W 075°04'0 0.0
2017-Nov-11 21:30N 40°00' W 075°04'0 0.0
2017-Nov-11 21:00N 40°00' W 075°04'0 0.0
2017-Nov-11 20:30N 40°00' W 075°04'0 0.0
2017-Nov-11 20:00N 40°00' W 075°04'0 0.0
2017-Nov-11 19:31N 40°00' W 075°04'0 0.0
2017-Nov-11 19:01N 40°00' W 075°04'0 0.0
2017-Nov-11 18:30N 40°00' W 075°04'0 0.0
2017-Nov-11 18:00N 40°00' W 075°04'0 0.0
2017-Nov-11 17:30N 40°00' W 075°04'0 0.0
2017-Nov-11 17:00N 40°00' W 075°04'0 0.0
2017-Nov-11 16:31N 40°00' W 075°04'0 0.0
2017-Nov-11 16:01N 40°00' W 075°04'0 0.0
2017-Nov-11 15:30N 40°00' W 075°04'0 0.0
2017-Nov-11 15:01N 40°00' W 075°04'0 0.0
2017-Nov-11 14:31N 40°00' W 075°04'0 0.0
2017-Nov-11 14:00N 40°00' W 075°04'0 0.0
2017-Nov-11 13:30N 40°00' W 075°04'0 0.0
2017-Nov-11 13:00N 40°00' W 075°04'0 0.0
2017-Nov-11 12:30N 40°00' W 075°04'0 0.0
2017-Nov-11 12:00N 40°00' W 075°04'0 0.0
2017-Nov-11 11:30N 40°00' W 075°04'0 0.0
2017-Nov-11 11:01N 40°00' W 075°04'0 0.0
2017-Nov-11 10:31N 40°00' W 075°04'0 0.0
2017-Nov-11 10:01N 40°00' W 075°04'0 0.0
2017-Nov-11 09:30N 40°00' W 075°04'0 0.0
2017-Nov-11 09:00N 40°00' W 075°04'0 0.0
2017-Nov-11 08:31N 40°00' W 075°04'0 0.0
2017-Nov-11 08:01N 40°00' W 075°04'0 0.0
2017-Nov-11 07:31N 40°00' W 075°04'0 0.0
2017-Nov-11 07:01N 40°00' W 075°04'0 0.0
2017-Nov-11 06:30N 40°00' W 075°04'0 0.0
2017-Nov-11 06:01N 40°00' W 075°04'0 0.0
2017-Nov-11 05:31N 40°00' W 075°04'0 0.0
2017-Nov-11 05:00N 40°00' W 075°04'0 0.0
2017-Nov-11 04:31N 40°00' W 075°04'0 0.0
2017-Nov-11 04:00N 40°00' W 075°04'0 0.0
2017-Nov-11 03:30N 40°00' W 075°04'0 0.0
2017-Nov-11 03:00N 40°00' W 075°04'0 0.0
2017-Nov-11 02:31N 40°00' W 075°04'0 0.0
2017-Nov-11 02:01N 40°00' W 075°04'0 0.0
2017-Nov-11 01:31N 40°00' W 075°04'0 0.0
2017-Nov-11 01:00N 40°00' W 075°04'0 0.0
2017-Nov-11 00:31N 40°00' W 075°04'0 0.0
2017-Nov-11 00:00N 40°00' W 075°04'0 0.0
2017-Nov-10 23:30N 40°00' W 075°04'0 0.0
2017-Nov-10 23:01N 40°00' W 075°04'0 0.0
2017-Nov-10 22:30N 40°00' W 075°04'0 0.0
2017-Nov-10 22:00N 40°00' W 075°04'0 0.0
2017-Nov-10 21:31N 40°00' W 075°04'0 0.0
2017-Nov-10 21:01N 40°00' W 075°04'1 2.7
2017-Nov-10 20:31N 39°59' W 075°04'4 7.8
2017-Nov-10 20:00N 39°56' W 075°08'4 7.3
2017-Nov-10 19:30N 39°53' W 075°10'4 8.2
2017-Nov-10 19:00N 39°51' W 075°15'4 8.7
2017-Nov-10 18:30N 39°51' W 075°20'2 3.3
2017-Nov-10 18:00N 39°50' W 075°22'4 7.7
2017-Nov-10 17:30N 39°48' W 075°26'4 7.3
2017-Nov-10 17:00N 39°45' W 075°30'3 6.9
2017-Nov-10 16:30N 39°42' W 075°31'3 6.9
2017-Nov-10 16:00N 39°39' W 075°33'3 6.0
2017-Nov-10 15:30N 39°36' W 075°34'3 5.1
2017-Nov-10 15:00N 39°33' W 075°35'510.8
2017-Nov-10 14:30N 39°33' W 075°42'5 9.4
2017-Nov-10 14:00N 39°32' W 075°48'3 6.9
2017-Nov-10 13:30N 39°31' W 075°53'4 7.2
2017-Nov-10 13:00N 39°29' W 075°57'4 8.5
2017-Nov-10 12:30N 39°26' W 076°00'4 8.3
2017-Nov-10 11:59N 39°23' W 076°05'4 8.1
2017-Nov-10 11:30N 39°21' W 076°09'4 7.6
2017-Nov-10 11:00N 39°19' W 076°13'3 6.8
2017-Nov-10 10:30N 39°16' W 076°14'4 7.8
2017-Nov-10 10:00N 39°12' W 076°16'4 8.1
2017-Nov-10 09:30N 39°09' W 076°20'4 8.1
2017-Nov-10 09:00N 39°05' W 076°21'22 8.3
2017-Nov-10 06:20N 38°44' W 076°28'5 9.1
2017-Nov-10 05:49N 38°39' W 076°27'5 8.9
2017-Nov-10 05:16N 38°34' W 076°27'  
Track history (hours):
 
Tides and Currents Weather Stations Pressure Air Temp Water Temp Dewpoint Dewpoint Depression Visibility Wind Speed Wind Dir Waves Ship Positions

Gulf Coast

Owner: Dann Marine Towing, LC, Chesapeake City, MD. More information available from US FCC via Universal Licensing System and Coast Guard Vessel Documentation Center.

Last reported at 2017-Nov-17 14:18 UTC. Time now 2017-Nov-18 17:54 UTC.
Position N 38°03' W 076°14'.

Length 30 m; draft 4 m.

Type: Tug. MMSI: 367098070.

Date/timePositionNaut miles runAvg speedWind from/ knotsBaromVisibWave heightAir tempDewpointWater temp
2017-Nov-17 14:18N 38°03' W 076°14'48 7.1
2017-Nov-17 07:32N 38°51' W 076°26'0 6.8
2017-Nov-17 07:30N 38°51' W 076°26'9 7.0
2017-Nov-17 06:09N 39°00' W 076°23'1 7.0
2017-Nov-17 05:57N 39°01' W 076°22'8 6.4
2017-Nov-17 04:40N 39°09' W 076°19'1 6.7
2017-Nov-17 04:29N 39°10' W 076°18'5 7.0
2017-Nov-17 03:47N 39°14' W 076°14'2 7.3
2017-Nov-17 03:29N 39°16' W 076°14'3 7.0
2017-Nov-17 03:00N 39°19' W 076°12'3 6.9
2017-Nov-17 02:30N 39°22' W 076°09'3 6.5
2017-Nov-17 02:00N 39°23' W 076°05'3 5.9
2017-Nov-17 01:30N 39°25' W 076°02'3 5.5
2017-Nov-17 01:00N 39°27' W 075°60'1 1.9
2017-Nov-17 00:30N 39°27' W 075°59'1 2.2
2017-Nov-17 00:00N 39°28' W 075°58'3 5.6
2017-Nov-16 23:30N 39°30' W 075°55'3 5.2
2017-Nov-16 23:00N 39°31' W 075°52'2 4.4
2017-Nov-16 22:30N 39°32' W 075°50'2 4.3
2017-Nov-16 22:00N 39°32' W 075°47'2 4.7
2017-Nov-16 21:30N 39°33' W 075°44'2 5.0
2017-Nov-16 21:00N 39°33' W 075°41'3 5.2
2017-Nov-16 20:30N 39°33' W 075°37'3 5.9
2017-Nov-16 20:00N 39°34' W 075°33'4 7.3
2017-Nov-16 19:30N 39°37' W 075°35'4 9.0
2017-Nov-16 19:00N 39°41' W 075°31'4 8.7
2017-Nov-16 18:30N 39°45' W 075°30'4 7.9
2017-Nov-16 18:00N 39°48' W 075°26'4 7.5
2017-Nov-16 17:31N 39°50' W 075°22'3 6.3
2017-Nov-16 17:00N 39°51' W 075°18'3 5.8
2017-Nov-16 16:31N 39°51' W 075°14'3 6.0
2017-Nov-16 16:01N 39°53' W 075°11'2 4.9
2017-Nov-16 15:31N 39°54' W 075°08'3 5.5
2017-Nov-16 15:01N 39°56' W 075°08'2 4.8
2017-Nov-16 14:30N 39°58' W 075°06'2 4.7
2017-Nov-16 14:01N 39°60' W 075°04'0 0.9
2017-Nov-16 13:31N 39°60' W 075°04'0 0.0
2017-Nov-16 13:01N 39°60' W 075°04'0 0.1
2017-Nov-16 12:31N 40°00' W 075°04'0 0.0
2017-Nov-16 12:01N 40°00' W 075°04'0 0.0
2017-Nov-16 11:30N 40°00' W 075°04'0 0.0
2017-Nov-16 11:00N 40°00' W 075°04'0 0.0
2017-Nov-16 10:30N 40°00' W 075°04'0 0.0
2017-Nov-16 10:00N 40°00' W 075°04'0 0.0
2017-Nov-16 09:30N 40°00' W 075°04'0 0.0
2017-Nov-16 09:00N 40°00' W 075°04'0 0.0
2017-Nov-16 08:30N 40°00' W 075°04'0 0.0
2017-Nov-16 08:00N 40°00' W 075°04'0 0.0
2017-Nov-16 07:30N 40°00' W 075°04'0 0.0
2017-Nov-16 07:00N 40°00' W 075°04'0 0.0
2017-Nov-16 06:30N 40°00' W 075°04'0 0.0
2017-Nov-16 06:00N 40°00' W 075°04'0 0.0
2017-Nov-16 05:30N 40°00' W 075°04'0 0.0
2017-Nov-16 05:01N 40°00' W 075°04'0 0.0
2017-Nov-16 04:30N 40°00' W 075°04'0 0.0
2017-Nov-16 04:00N 40°00' W 075°04'0 0.0
2017-Nov-16 03:30N 40°00' W 075°04'0 0.0
2017-Nov-16 03:00N 40°00' W 075°04'0 0.0
2017-Nov-16 02:31N 40°00' W 075°04'0 0.0
2017-Nov-16 02:01N 40°00' W 075°04'0 0.0
2017-Nov-16 01:31N 40°00' W 075°04'0 0.0
2017-Nov-16 01:01N 40°00' W 075°04'0 0.0
2017-Nov-16 00:31N 40°00' W 075°04'0 0.0
2017-Nov-16 00:01N 40°00' W 075°04'0 0.0
2017-Nov-15 23:30N 40°00' W 075°04'0 0.0
2017-Nov-15 23:01N 40°00' W 075°04'0 0.0
2017-Nov-15 22:31N 40°00' W 075°04'0 0.0
2017-Nov-15 22:00N 40°00' W 075°04'0 0.0
2017-Nov-15 21:31N 40°00' W 075°04'0 0.0
2017-Nov-15 21:00N 40°00' W 075°04'0 0.0
2017-Nov-15 20:31N 40°00' W 075°04'0 0.0
2017-Nov-15 20:00N 40°00' W 075°04'0 0.0
2017-Nov-15 19:30N 40°00' W 075°04'0 0.0
2017-Nov-15 19:01N 40°00' W 075°04'0 0.0
2017-Nov-15 18:30N 40°00' W 075°04'0 0.0
2017-Nov-15 18:01N 40°00' W 075°04'0 0.0
2017-Nov-15 17:31N 40°00' W 075°04'0 0.0
2017-Nov-15 17:01N 40°00' W 075°04'0 0.0
2017-Nov-15 16:30N 40°00' W 075°04'0 0.0
2017-Nov-15 16:00N 40°00' W 075°04'0 0.0
2017-Nov-15 15:31N 40°00' W 075°04'0 0.0
2017-Nov-15 15:01N 40°00' W 075°04'0 0.0
2017-Nov-15 14:31N 40°00' W 075°04'0 0.0
2017-Nov-15 14:01N 40°00' W 075°04'0 0.0
2017-Nov-15 13:31N 40°00' W 075°04'0 0.0
2017-Nov-15 13:01N 40°00' W 075°04'0 0.0
2017-Nov-15 12:30N 40°00' W 075°04'0 0.0
2017-Nov-15 12:01N 40°00' W 075°04'0 0.0
2017-Nov-15 11:31N 40°00' W 075°04'0 0.0
2017-Nov-15 11:00N 40°00' W 075°04'0 0.0
2017-Nov-15 10:30N 40°00' W 075°04'0 0.0
2017-Nov-15 10:01N 40°00' W 075°04'0 0.0
2017-Nov-15 09:31N 40°00' W 075°04'0 0.0
2017-Nov-15 09:01N 40°00' W 075°04'0 0.0
2017-Nov-15 08:31N 40°00' W 075°04'0 0.0
2017-Nov-15 08:01N 40°00' W 075°04'0 0.0
2017-Nov-15 07:31N 40°00' W 075°04'0 0.0
2017-Nov-15 07:01N 40°00' W 075°04'0 0.0
2017-Nov-15 06:30N 40°00' W 075°04'0 0.0
2017-Nov-15 06:01N 40°00' W 075°04'0 0.0
2017-Nov-15 05:30N 40°00' W 075°04'0 0.0
2017-Nov-15 05:01N 40°00' W 075°04'0 0.0
2017-Nov-15 04:31N 40°00' W 075°04'0 0.0
2017-Nov-15 04:00N 40°00' W 075°04'0 0.0
2017-Nov-15 03:30N 40°00' W 075°04'0 0.0
2017-Nov-15 03:00N 40°00' W 075°04'0 0.0
2017-Nov-15 02:30N 40°00' W 075°04'0 0.0
2017-Nov-15 02:01N 40°00' W 075°04'0 0.0
2017-Nov-15 01:30N 40°00' W 075°04'0 0.0
2017-Nov-15 01:01N 40°00' W 075°04'0 0.0
2017-Nov-15 00:30N 40°00' W 075°04'0 0.0
2017-Nov-15 00:00N 40°00' W 075°04'0 0.0
2017-Nov-14 23:30N 40°00' W 075°04'0 0.0
2017-Nov-14 23:01N 40°00' W 075°04'0 0.0
2017-Nov-14 22:31N 40°00' W 075°04'0 0.0
2017-Nov-14 22:00N 40°00' W 075°04'0 0.0
2017-Nov-14 21:30N 40°00' W 075°04'0 0.0
2017-Nov-14 21:00N 40°00' W 075°04'0 0.0
2017-Nov-14 20:30N 40°00' W 075°04'0 0.0
2017-Nov-14 20:01N 40°00' W 075°04'0 0.0
2017-Nov-14 19:30N 40°00' W 075°04'0 0.0
2017-Nov-14 19:00N 40°00' W 075°04'0 0.0
2017-Nov-14 18:31N 40°00' W 075°04'0 0.0
2017-Nov-14 18:01N 40°00' W 075°04'0 0.0
2017-Nov-14 17:30N 40°00' W 075°04'0 0.0
2017-Nov-14 17:00N 40°00' W 075°04'0 0.0
2017-Nov-14 16:30N 40°00' W 075°04'0 0.0
2017-Nov-14 16:00N 40°00' W 075°04'0 0.0
2017-Nov-14 15:31N 40°00' W 075°04'0 0.0
2017-Nov-14 15:00N 40°00' W 075°04'0 0.0
2017-Nov-14 14:30N 40°00' W 075°04'0 0.0
2017-Nov-14 14:00N 40°00' W 075°04'0 0.0
2017-Nov-14 13:30N 40°00' W 075°04'0 0.0
2017-Nov-14 13:01N 40°00' W 075°04'0 0.0
2017-Nov-14 12:30N 40°00' W 075°04'0 0.0
2017-Nov-14 12:01N 40°00' W 075°04'0 0.0
2017-Nov-14 11:31N 40°00' W 075°04'0 0.0
2017-Nov-14 11:01N 40°00' W 075°04'0 0.0
2017-Nov-14 10:31N 40°00' W 075°04'0 0.0
2017-Nov-14 10:00N 40°00' W 075°04'0 0.0
2017-Nov-14 09:31N 40°00' W 075°04'0 0.0
2017-Nov-14 09:00N 40°00' W 075°04'0 0.0
2017-Nov-14 08:30N 40°00' W 075°04'0 0.0
2017-Nov-14 08:00N 40°00' W 075°04'0 0.0
2017-Nov-14 07:30N 40°00' W 075°04'0 0.0
2017-Nov-14 07:00N 40°00' W 075°04'0 0.0
2017-Nov-14 06:30N 40°00' W 075°04'0 0.0
2017-Nov-14 06:01N 40°00' W 075°04'0 0.0
2017-Nov-14 05:31N 40°00' W 075°04'0 0.0
2017-Nov-14 05:01N 40°00' W 075°04'0 0.0
2017-Nov-14 04:30N 40°00' W 075°04'0 0.0
2017-Nov-14 04:00N 40°00' W 075°04'0 0.0
2017-Nov-14 03:30N 40°00' W 075°04'0 0.0
2017-Nov-14 03:01N 40°00' W 075°04'0 0.0
2017-Nov-14 02:30N 40°00' W 075°04'0 0.0
2017-Nov-14 02:01N 40°00' W 075°04'0 0.0
2017-Nov-14 01:31N 40°00' W 075°04'0 0.0
2017-Nov-14 01:00N 40°00' W 075°04'0 0.0
2017-Nov-14 00:31N 40°00' W 075°04'0 0.0
2017-Nov-14 00:01N 40°00' W 075°04'0 0.0
2017-Nov-13 23:30N 40°00' W 075°04'0 0.0
2017-Nov-13 23:00N 40°00' W 075°04'0 0.0
2017-Nov-13 22:30N 40°00' W 075°04'0 0.0
2017-Nov-13 22:01N 40°00' W 075°04'0 0.0
2017-Nov-13 02:01N 40°00' W 075°04'0 0.0
2017-Nov-13 01:31N 40°00' W 075°04'0 0.0
2017-Nov-13 01:01N 40°00' W 075°04'0 0.0
2017-Nov-13 00:31N 40°00' W 075°04'0 0.0
2017-Nov-13 00:00N 40°00' W 075°04'0 0.0
2017-Nov-12 23:31N 40°00' W 075°04'0 0.0
2017-Nov-12 23:01N 40°00' W 075°04'0 0.0
2017-Nov-12 22:31N 40°00' W 075°04'0 0.0
2017-Nov-12 22:01N 40°00' W 075°04'0 0.0
2017-Nov-12 21:31N 40°00' W 075°04'0 0.0
2017-Nov-12 21:00N 40°00' W 075°04'0 0.0
2017-Nov-12 20:31N 40°00' W 075°04'0 0.0
2017-Nov-12 20:01N 40°00' W 075°04'0 0.0
2017-Nov-12 19:30N 40°00' W 075°04'0 0.0
2017-Nov-12 19:01N 40°00' W 075°04'0 0.0
2017-Nov-12 18:30N 40°00' W 075°04'0 0.0
2017-Nov-12 18:00N 40°00' W 075°04'0 0.0
2017-Nov-12 17:30N 40°00' W 075°04'0 0.0
2017-Nov-12 17:00N 40°00' W 075°04'0 0.0
2017-Nov-12 16:31N 40°00' W 075°04'0 0.0
2017-Nov-12 16:00N 40°00' W 075°04'0 0.0
2017-Nov-12 15:30N 40°00' W 075°04'0 0.0
2017-Nov-12 15:01N 40°00' W 075°04'0 0.0
2017-Nov-12 14:30N 40°00' W 075°04'0 0.0
2017-Nov-12 14:00N 40°00' W 075°04'0 0.0
2017-Nov-12 13:31N 40°00' W 075°04'0 0.0
2017-Nov-12 13:01N 40°00' W 075°04'0 0.0
2017-Nov-12 12:30N 40°00' W 075°04'0 0.0
2017-Nov-12 12:01N 40°00' W 075°04'0 0.0
2017-Nov-12 11:30N 40°00' W 075°04'0 0.0
2017-Nov-12 11:00N 40°00' W 075°04'0 0.0
2017-Nov-12 10:30N 40°00' W 075°04'0 0.0
2017-Nov-12 10:00N 40°00' W 075°04'0 0.0
2017-Nov-12 09:31N 40°00' W 075°04'0 0.0
2017-Nov-12 09:01N 40°00' W 075°04'0 0.0
2017-Nov-12 08:30N 40°00' W 075°04'0 0.0
2017-Nov-12 08:00N 40°00' W 075°04'0 0.0
2017-Nov-12 07:30N 40°00' W 075°04'0 0.0
2017-Nov-12 07:01N 40°00' W 075°04'0 0.0
2017-Nov-12 06:30N 40°00' W 075°04'0 0.0
2017-Nov-12 06:00N 40°00' W 075°04'0 0.0
2017-Nov-12 05:30N 40°00' W 075°04'0 0.0
2017-Nov-12 05:00N 40°00' W 075°04'0 0.0
2017-Nov-12 04:30N 40°00' W 075°04'0 0.0
2017-Nov-12 04:01N 40°00' W 075°04'0 0.0
2017-Nov-12 03:31N 40°00' W 075°04'0 0.0
2017-Nov-12 03:01N 40°00' W 075°04'0 0.0
2017-Nov-12 02:31N 40°00' W 075°04'0 0.0
2017-Nov-12 02:00N 40°00' W 075°04'0 0.0
2017-Nov-12 01:31N 40°00' W 075°04'0 0.0
2017-Nov-12 01:01N 40°00' W 075°04'0 0.0
2017-Nov-12 00:31N 40°00' W 075°04'0 0.0
2017-Nov-12 00:01N 40°00' W 075°04'0 0.0
2017-Nov-11 23:31N 40°00' W 075°04'0 0.0
2017-Nov-11 23:01N 40°00' W 075°04'0 0.0
2017-Nov-11 22:31N 40°00' W 075°04'0 0.0
2017-Nov-11 22:00N 40°00' W 075°04'0 0.0
2017-Nov-11 21:30N 40°00' W 075°04'0 0.0
2017-Nov-11 21:00N 40°00' W 075°04'0 0.0
2017-Nov-11 20:30N 40°00' W 075°04'0 0.0
2017-Nov-11 20:00N 40°00' W 075°04'0 0.0
2017-Nov-11 19:31N 40°00' W 075°04'0 0.0
2017-Nov-11 19:01N 40°00' W 075°04'0 0.0
2017-Nov-11 18:30N 40°00' W 075°04'0 0.0
2017-Nov-11 18:00N 40°00' W 075°04'0 0.0
2017-Nov-11 17:30N 40°00' W 075°04'0 0.0
2017-Nov-11 17:00N 40°00' W 075°04'0 0.0
2017-Nov-11 16:31N 40°00' W 075°04'0 0.0
2017-Nov-11 16:01N 40°00' W 075°04'0 0.0
2017-Nov-11 15:30N 40°00' W 075°04'0 0.0
2017-Nov-11 15:01N 40°00' W 075°04'0 0.0
2017-Nov-11 14:31N 40°00' W 075°04'0 0.0
2017-Nov-11 14:00N 40°00' W 075°04'0 0.0
2017-Nov-11 13:30N 40°00' W 075°04'0 0.0
2017-Nov-11 13:00N 40°00' W 075°04'0 0.0
2017-Nov-11 12:30N 40°00' W 075°04'0 0.0
2017-Nov-11 12:00N 40°00' W 075°04'0 0.0
2017-Nov-11 11:30N 40°00' W 075°04'0 0.0
2017-Nov-11 11:01N 40°00' W 075°04'0 0.0
2017-Nov-11 10:31N 40°00' W 075°04'0 0.0
2017-Nov-11 10:01N 40°00' W 075°04'0 0.0
2017-Nov-11 09:30N 40°00' W 075°04'0 0.0
2017-Nov-11 09:00N 40°00' W 075°04'0 0.0
2017-Nov-11 08:31N 40°00' W 075°04'0 0.0
2017-Nov-11 08:01N 40°00' W 075°04'0 0.0
2017-Nov-11 07:31N 40°00' W 075°04'0 0.0
2017-Nov-11 07:01N 40°00' W 075°04'0 0.0
2017-Nov-11 06:30N 40°00' W 075°04'0 0.0
2017-Nov-11 06:01N 40°00' W 075°04'0 0.0
2017-Nov-11 05:31N 40°00' W 075°04'0 0.0
2017-Nov-11 05:00N 40°00' W 075°04'0 0.0
2017-Nov-11 04:31N 40°00' W 075°04'0 0.0
2017-Nov-11 04:00N 40°00' W 075°04'0 0.0
2017-Nov-11 03:30N 40°00' W 075°04'0 0.0
2017-Nov-11 03:00N 40°00' W 075°04'0 0.0
2017-Nov-11 02:31N 40°00' W 075°04'0 0.0
2017-Nov-11 02:01N 40°00' W 075°04'0 0.0
2017-Nov-11 01:31N 40°00' W 075°04'0 0.0
2017-Nov-11 01:00N 40°00' W 075°04'0 0.0
2017-Nov-11 00:31N 40°00' W 075°04'0 0.0
2017-Nov-11 00:00N 40°00' W 075°04'0 0.0
2017-Nov-10 23:30N 40°00' W 075°04'0 0.0
2017-Nov-10 23:01N 40°00' W 075°04'0 0.0
2017-Nov-10 22:30N 40°00' W 075°04'0 0.0
2017-Nov-10 22:00N 40°00' W 075°04'0 0.0
2017-Nov-10 21:31N 40°00' W 075°04'0 0.0
2017-Nov-10 21:01N 40°00' W 075°04'1 2.7
2017-Nov-10 20:31N 39°59' W 075°04'4 7.8
2017-Nov-10 20:00N 39°56' W 075°08'4 7.3
2017-Nov-10 19:30N 39°53' W 075°10'4 8.2
2017-Nov-10 19:00N 39°51' W 075°15'4 8.7
2017-Nov-10 18:30N 39°51' W 075°20'2 3.3
2017-Nov-10 18:00N 39°50' W 075°22'4 7.7
2017-Nov-10 17:30N 39°48' W 075°26'4 7.3
2017-Nov-10 17:00N 39°45' W 075°30'3 6.9
2017-Nov-10 16:30N 39°42' W 075°31'3 6.9
2017-Nov-10 16:00N 39°39' W 075°33'3 6.0
2017-Nov-10 15:30N 39°36' W 075°34'3 5.1
2017-Nov-10 15:00N 39°33' W 075°35'510.8
2017-Nov-10 14:30N 39°33' W 075°42'5 9.4
2017-Nov-10 14:00N 39°32' W 075°48'3 6.9
2017-Nov-10 13:30N 39°31' W 075°53'4 7.2
2017-Nov-10 13:00N 39°29' W 075°57'4 8.5
2017-Nov-10 12:30N 39°26' W 076°00'4 8.3
2017-Nov-10 11:59N 39°23' W 076°05'4 8.1
2017-Nov-10 11:30N 39°21' W 076°09'4 7.6
2017-Nov-10 11:00N 39°19' W 076°13'3 6.8
2017-Nov-10 10:30N 39°16' W 076°14'4 7.8
2017-Nov-10 10:00N 39°12' W 076°16'4 8.1
2017-Nov-10 09:30N 39°09' W 076°20'4 8.1
2017-Nov-10 09:00N 39°05' W 076°21'22 8.3
2017-Nov-10 06:20N 38°44' W 076°28'5 9.1
2017-Nov-10 05:49N 38°39' W 076°27'5 8.9
2017-Nov-10 05:16N 38°34' W 076°27'  

Dump ship's entire track history